首页
METAR-TAF:

METAR-TAF

机场 :

Marshfield Municipal Airport

Marshfield, 威斯康辛州, 美国

纬度: 44-38-17N, 经度: 090-11-15W, 海拔: 389米

当前天气观测

该预报发布于12分钟前的06:54 UTC
风速3节,风向西南
温度 7°C
湿度 93%
气压 1008 hPa
能見度: 0.4公里

METAR: KMFI 200654Z AUTO 22003KT 1/4SM FG VV002 07/06 A2976 RMK AO2 SLP086 T00670061

时间: 02:06 (07:06 UTC)


TAF: 丢失

超过4000个机场的气象观测和天气预报(METAR&TAF报告)。

可查询的气象台以黄色和红色小点在地图上表示。

将鼠标移到小点上方,可查看气象台名称。

然后点击查看天气观测和预报。

如需切换地图:点击带黑十字的绿色按钮放大地图;点击带横线的绿色按钮缩小地图;或者点击绿色箭头查看邻近地区的地图。


METAR-TAF: